Time;durP1;ratioP1;P1;durP2;ratioP2;P2;SDS_P1;SDS_P2;PMS_P1;PMS_P2;Temp;Humidity;BMP_temperature;BMP_pressure;BME280_temperature;BME280_humidity;BME280_pressure;Samples;Min_cycle;Max_cycle;Signal;HPM_P1;HPM_P2
2022/09/06 00:02:35;;;;;;;6.37;4.90;;;;;;;7.97;77.88;99722.84;2223751;80;20892;-82
2022/09/06 00:05:35;;;;;;;7.83;5.17;;;;;;;7.95;78.04;99728.82;2223919;80;20983;-82
2022/09/06 00:08:36;;;;;;;18.87;5.03;;;;;;;7.92;77.97;99731.31;2225170;80;20932;-83
2022/09/06 00:11:36;;;;;;;6.97;4.70;;;;;;;7.90;78.14;99732.97;2223589;80;20970;-82
2022/09/06 00:14:36;;;;;;;44.07;7.27;;;;;;;7.87;77.84;99730.25;2224374;80;20928;-82
2022/09/06 00:17:37;;;;;;;6.70;4.30;;;;;;;7.82;78.08;99727.91;2223826;80;20932;-82
2022/09/06 00:20:40;;;;;;;9.50;5.30;;;;;;;7.81;77.98;99733.93;2223598;80;20928;-81
2022/09/06 00:23:37;;;;;;;12.13;4.40;;;;;;;7.76;77.92;99734.14;2226077;80;21020;-83
2022/09/06 00:26:38;;;;;;;6.73;4.43;;;;;;;7.72;77.93;99734.86;2228390;80;20932;-83
2022/09/06 00:29:38;;;;;;;9.63;4.60;;;;;;;7.74;78.15;99735.80;2228177;80;20919;-82
2022/09/06 00:32:40;;;;;;;33.37;7.13;;;;;;;7.78;78.30;99732.48;2228452;80;20919;-83
2022/09/06 00:35:39;;;;;;;24.37;6.80;;;;;;;7.83;78.59;99736.17;2228356;80;20994;-80
2022/09/06 00:38:40;;;;;;;7.67;4.50;;;;;;;7.92;78.85;99728.70;2227982;80;21351;-84
2022/09/06 00:41:40;;;;;;;7.37;4.00;;;;;;;7.96;78.47;99726.27;2227609;80;20923;-83
2022/09/06 00:44:40;;;;;;;6.10;4.20;;;;;;;7.96;78.44;99726.27;2227577;80;20951;-82
2022/09/06 00:47:41;;;;;;;11.20;3.80;;;;;;;8.04;78.44;99726.55;2227751;80;20896;-84
2022/09/06 00:50:41;;;;;;;7.30;3.97;;;;;;;8.05;78.23;99732.63;2227532;80;21346;-83
2022/09/06 00:53:42;;;;;;;8.97;4.07;;;;;;;8.02;78.23;99728.63;2227535;80;20947;-83
2022/09/06 00:56:43;;;;;;;7.57;4.07;;;;;;;7.99;78.39;99732.88;2227411;80;20920;-82
2022/09/06 00:59:43;;;;;;;9.17;4.40;;;;;;;8.02;78.71;99733.41;2227330;80;20959;-83
2022/09/06 01:02:43;;;;;;;7.20;3.80;;;;;;;7.98;78.63;99736.31;2227650;80;20974;-83
2022/09/06 01:05:44;;;;;;;14.40;4.43;;;;;;;7.93;78.70;99735.27;2227267;80;21355;-83
2022/09/06 01:08:44;;;;;;;7.73;4.07;;;;;;;7.90;78.78;99731.67;2227317;80;20955;-83
2022/09/06 01:11:45;;;;;;;6.53;3.70;;;;;;;7.86;78.70;99728.48;2227650;80;20900;-83
2022/09/06 01:14:45;;;;;;;11.90;4.47;;;;;;;7.83;78.68;99736.17;2227391;80;21303;-82
2022/09/06 01:17:45;;;;;;;6.07;3.80;;;;;;;7.84;78.76;99734.93;2227492;80;20964;-84
2022/09/06 01:20:46;;;;;;;5.60;3.87;;;;;;;7.81;78.75;99738.72;2227486;80;20986;-84
2022/09/06 01:23:46;;;;;;;6.63;3.77;;;;;;;7.74;78.58;99728.00;2226170;80;21347;-83
2022/09/06 01:26:47;;;;;;;31.70;5.80;;;;;;;7.68;78.65;99739.94;2223487;80;20895;-83
2022/09/06 01:29:47;;;;;;;5.33;3.90;;;;;;;7.59;78.92;99729.20;2223853;80;20996;-83
2022/09/06 01:32:47;;;;;;;6.50;4.17;;;;;;;7.54;78.65;99740.25;2223704;80;21423;-83
2022/09/06 01:35:48;;;;;;;7.03;3.77;;;;;;;7.41;78.59;99729.80;2223130;80;20998;-82
2022/09/06 01:38:48;;;;;;;7.17;3.70;;;;;;;7.33;78.70;99727.33;2223138;80;21003;-83
2022/09/06 01:41:49;;;;;;;15.23;4.03;;;;;;;7.26;78.84;99725.31;2223978;80;20948;-83
2022/09/06 01:44:49;;;;;;;9.40;4.20;;;;;;;7.21;79.08;99726.84;2223713;80;21304;-82
2022/09/06 01:47:49;;;;;;;108.80;9.27;;;;;;;7.20;79.18;99727.67;2223614;80;20936;-81
2022/09/06 01:50:50;;;;;;;6.63;4.33;;;;;;;7.16;79.12;99725.78;2223651;80;20908;-84
2022/09/06 01:53:50;;;;;;;7.90;4.17;;;;;;;7.14;79.31;99724.84;2223817;80;20912;-84
2022/09/06 01:56:51;;;;;;;35.83;6.53;;;;;;;7.08;79.09;99720.30;2223877;80;20959;-84
2022/09/06 01:59:54;;;;;;;9.30;4.37;;;;;;;7.03;79.19;99716.63;2223871;80;20943;-84
2022/09/06 02:02:54;;;;;;;18.80;5.43;;;;;;;6.99;79.22;99711.73;2223924;80;20952;-82
2022/09/06 02:05:54;;;;;;;17.93;4.47;;;;;;;6.97;79.42;99708.19;2223367;80;20970;-82
2022/09/06 02:08:55;;;;;;;7.67;3.80;;;;;;;6.91;79.06;99707.02;2223753;80;20944;-83
2022/09/06 02:11:55;;;;;;;6.63;3.83;;;;;;;6.82;78.87;99714.03;2223997;80;20904;-82
2022/09/06 02:14:56;;;;;;;28.27;5.43;;;;;;;6.73;78.82;99716.25;2223838;80;21284;-84
2022/09/06 02:17:56;;;;;;;13.67;4.00;;;;;;;6.68;79.30;99713.88;2224283;80;20972;-83
2022/09/06 02:20:56;;;;;;;5.73;3.63;;;;;;;6.63;79.44;99713.70;2223873;80;20967;-81
2022/09/06 02:23:57;;;;;;;7.83;3.40;;;;;;;6.58;79.18;99713.91;2222515;80;20920;-83
2022/09/06 02:26:57;;;;;;;4.97;3.73;;;;;;;6.57;79.37;99708.66;2220605;80;20951;-81
2022/09/06 02:29:58;;;;;;;8.90;4.20;;;;;;;6.53;79.31;99713.25;2221173;80;20964;-82
2022/09/06 02:32:58;;;;;;;4.77;3.33;;;;;;;6.46;79.34;99707.33;2221083;80;20928;-82
2022/09/06 02:35:58;;;;;;;7.30;4.50;;;;;;;6.45;79.37;99713.34;2221162;80;20955;-82
2022/09/06 02:39:00;;;;;;;7.63;3.90;;;;;;;6.39;79.23;99708.78;2220920;80;20924;-83
2022/09/06 02:41:59;;;;;;;5.63;3.57;;;;;;;6.37;79.62;99699.64;2221281;80;20935;-83
2022/09/06 02:45:00;;;;;;;4.13;3.40;;;;;;;6.37;79.41;99695.75;2220921;80;20967;-83
2022/09/06 02:48:00;;;;;;;5.73;3.47;;;;;;;6.30;79.15;99700.20;2221075;80;20901;-83
2022/09/06 02:51:00;;;;;;;4.77;3.40;;;;;;;6.21;78.97;99700.23;2221130;80;20967;-82
2022/09/06 02:54:01;;;;;;;32.57;5.70;;;;;;;6.14;79.16;99699.08;2221228;80;20968;-84
2022/09/06 02:57:01;;;;;;;5.57;3.90;;;;;;;6.13;79.52;99699.02;2220902;80;20912;-82
2022/09/06 03:00:02;;;;;;;6.10;3.57;;;;;;;6.19;79.71;99701.46;2220653;80;20932;-82
2022/09/06 03:03:02;;;;;;;34.73;6.27;;;;;;;6.23;79.25;99698.59;2221283;80;21250;-85
2022/09/06 03:06:02;;;;;;;6.60;4.57;;;;;;;6.16;79.20;99691.38;2221298;80;20947;-84
2022/09/06 03:09:03;;;;;;;9.70;4.00;;;;;;;6.19;79.44;99686.31;2221550;80;20963;-86
2022/09/06 03:12:03;;;;;;;7.60;4.37;;;;;;;6.17;78.92;99682.36;2220840;80;20908;-84
2022/09/06 03:15:04;;;;;;;62.20;8.63;;;;;;;6.10;78.76;99682.92;2221296;80;20924;-83
2022/09/06 03:18:04;;;;;;;10.87;4.80;;;;;;;6.00;78.93;99680.31;2221001;80;20936;-83
2022/09/06 03:21:05;;;;;;;6.43;3.77;;;;;;;5.95;79.02;99678.34;2220622;80;20947;-82
2022/09/06 03:24:05;;;;;;;34.27;6.73;;;;;;;5.92;79.05;99679.51;2220882;80;20904;-81
2022/09/06 03:27:05;;;;;;;7.73;4.00;;;;;;;5.88;78.98;99682.75;2220438;80;21361;-83
2022/09/06 03:30:06;;;;;;;24.67;4.77;;;;;;;5.82;78.62;99682.48;2220027;80;21324;-83
2022/09/06 03:33:06;;;;;;;8.23;4.13;;;;;;;5.73;78.60;99680.37;2220002;80;20976;-83
2022/09/06 03:36:07;;;;;;;6.97;3.73;;;;;;;5.63;78.69;99676.91;2219690;80;20955;-84
2022/09/06 03:39:07;;;;;;;8.90;4.73;;;;;;;5.56;79.08;99674.45;2219677;80;21280;-83
2022/09/06 03:42:07;;;;;;;9.23;3.40;;;;;;;5.48;78.79;99677.11;2219506;80;20923;-83
2022/09/06 03:45:08;;;;;;;6.20;3.53;;;;;;;5.41;78.91;99682.41;2219821;80;20964;-83
2022/09/06 03:48:08;;;;;;;11.03;3.23;;;;;;;5.35;78.99;99681.25;2219429;80;21355;-82
2022/09/06 03:51:09;;;;;;;118.70;7.83;;;;;;;5.31;79.23;99675.45;2219360;80;20888;-83
2022/09/06 03:54:09;;;;;;;9.27;3.47;;;;;;;5.31;79.39;99675.05;2219568;80;20916;-83
2022/09/06 03:57:09;;;;;;;6.23;3.70;;;;;;;5.31;79.37;99680.63;2219084;80;20904;-84
2022/09/06 04:00:10;;;;;;;6.63;3.50;;;;;;;5.32;79.19;99686.29;2219365;80;20935;-83
2022/09/06 04:03:10;;;;;;;4.73;3.07;;;;;;;5.37;79.12;99689.97;2218920;80;20947;-83
2022/09/06 04:06:11;;;;;;;5.77;3.50;;;;;;;5.36;79.08;99683.02;2219087;80;21406;-83
2022/09/06 04:09:11;;;;;;;22.20;3.33;;;;;;;5.34;79.05;99677.77;2218846;80;20919;-84
2022/09/06 04:12:11;;;;;;;6.33;3.40;;;;;;;5.29;78.80;99678.38;2219218;80;20908;-82
2022/09/06 04:15:12;;;;;;;6.27;3.20;;;;;;;5.26;79.11;99673.95;2219589;80;20911;-80
2022/09/06 04:18:15;;;;;;;5.40;3.23;;;;;;;5.25;79.03;99672.59;2219058;80;20966;-82
2022/09/06 04:21:15;;;;;;;5.13;3.00;;;;;;;5.23;78.92;99676.40;2218684;80;21338;-80
2022/09/06 04:24:16;;;;;;;4.27;2.90;;;;;;;5.27;79.16;99678.72;2218956;80;20947;-82
2022/09/06 04:27:16;;;;;;;6.93;3.07;;;;;;;5.30;79.00;99672.39;2220841;80;20924;-83
2022/09/06 04:30:17;;;;;;;4.93;2.93;;;;;;;5.31;79.17;99670.28;2222850;80;20915;-83
2022/09/06 04:33:17;;;;;;;4.23;3.00;;;;;;;5.31;78.90;99673.75;2223511;80;20924;-82
2022/09/06 04:36:17;;;;;;;20.83;4.30;;;;;;;5.32;78.91;99674.64;2222311;80;20990;-82
2022/09/06 04:39:18;;;;;;;12.17;3.80;;;;;;;5.34;79.24;99675.19;2222634;80;20995;-83
2022/09/06 04:42:18;;;;;;;7.53;4.00;;;;;;;5.39;79.21;99678.88;2222154;80;21367;-83
2022/09/06 04:45:19;;;;;;;88.97;7.60;;;;;;;5.44;79.67;99679.08;2221805;80;20880;-84
2022/09/06 04:48:19;;;;;;;5.50;3.30;;;;;;;5.56;79.52;99677.45;2223475;80;20927;-84
2022/09/06 04:51:19;;;;;;;4.17;3.27;;;;;;;5.69;79.50;99676.77;2224102;80;20943;-84
2022/09/06 04:54:20;;;;;;;56.03;5.33;;;;;;;5.87;79.44;99683.57;2223258;80;20939;-81
2022/09/06 04:57:20;;;;;;;4.93;3.30;;;;;;;6.01;79.41;99683.38;2222309;80;20908;-85
2022/09/06 05:00:21;;;;;;;8.63;3.17;;;;;;;6.21;79.73;99671.30;2223692;80;20943;-83
2022/09/06 05:03:21;;;;;;;6.00;3.50;;;;;;;6.34;79.04;99682.66;2225384;78;21001;-83
2022/09/06 05:06:21;;;;;;;10.83;3.53;;;;;;;6.46;78.88;99681.40;2221443;80;20990;-83
2022/09/06 05:09:25;;;;;;;12.80;5.00;;;;;;;6.58;78.72;99680.60;2220739;80;21379;-81
2022/09/06 05:12:31;;;;;;;16.07;4.43;;;;;;;6.70;78.85;99674.20;2193570;80;20876;-84
2022/09/06 05:15:34;;;;;;;8.60;4.23;;;;;;;6.91;78.99;99678.47;2194270;80;20979;-81
2022/09/06 05:18:34;;;;;;;969.07;91.43;;;;;;;7.09;78.85;99679.64;2221808;80;21339;-83
2022/09/06 05:21:35;;;;;;;24.77;5.13;;;;;;;7.28;78.98;99674.33;2221396;80;20948;-83
2022/09/06 05:24:35;;;;;;;31.10;6.50;;;;;;;7.50;78.99;99670.41;2223012;80;20948;-82
2022/09/06 05:27:35;;;;;;;11.73;4.53;;;;;;;7.74;78.94;99674.73;2225872;80;20959;-81
2022/09/06 05:30:36;;;;;;;23.47;5.27;;;;;;;8.01;79.20;99678.34;2226372;80;20951;-83
2022/09/06 05:33:37;;;;;;;10.83;3.83;;;;;;;8.28;79.08;99669.30;2225797;80;20888;-82
2022/09/06 05:36:37;;;;;;;22.60;5.80;;;;;;;8.56;78.99;99674.63;2224922;80;21011;-83
2022/09/06 05:39:37;;;;;;;15.13;7.43;;;;;;;8.72;78.40;99669.53;2224694;80;20978;-84
2022/09/06 05:42:39;;;;;;;128.20;13.63;;;;;;;8.92;78.02;99676.27;2224910;80;20948;-82
2022/09/06 05:45:38;;;;;;;23.37;8.90;;;;;;;9.14;78.08;99675.63;2224878;80;20955;-82
2022/09/06 05:48:38;;;;;;;13.47;7.63;;;;;;;9.38;78.37;99676.36;2225659;80;20910;-82
2022/09/06 05:51:39;;;;;;;17.43;9.40;;;;;;;9.70;78.70;99671.23;2225384;80;20916;-82
2022/09/06 05:54:39;;;;;;;14.10;6.87;;;;;;;9.99;78.44;99679.86;2225032;80;21288;-83
2022/09/06 05:57:39;;;;;;;14.43;7.30;;;;;;;10.25;78.10;99675.38;2225028;80;20915;-82
2022/09/06 06:00:40;;;;;;;21.03;6.77;;;;;;;10.60;78.50;99681.53;2225051;80;20979;-83
2022/09/06 06:03:40;;;;;;;11.23;6.50;;;;;;;10.84;78.10;99679.52;2225386;80;21303;-83
2022/09/06 06:06:41;;;;;;;64.53;10.33;;;;;;;11.16;77.88;99675.03;2225727;80;20944;-83
2022/09/06 06:09:41;;;;;;;57.20;7.77;;;;;;;11.43;77.31;99675.67;2224314;80;21779;-82
2022/09/06 06:12:42;;;;;;;20.03;6.80;;;;;;;11.71;76.75;99681.48;2224204;80;20884;-82
2022/09/06 06:15:42;;;;;;;13.03;5.57;;;;;;;12.05;77.01;99673.48;2224459;80;20939;-82
2022/09/06 06:18:45;;;;;;;9.03;4.30;;;;;;;12.48;76.61;99671.67;2224970;80;21602;-84
2022/09/06 06:21:46;;;;;;;8.88;4.80;;;;;;;12.92;76.00;99675.45;2225195;80;20915;-82
2022/09/06 06:24:46;;;;;;;7.78;4.20;;;;;;;13.28;75.64;99683.93;2222718;80;21011;-83
2022/09/06 06:27:46;;;;;;;7.28;3.55;;;;;;;13.64;74.44;99678.30;2220697;80;20912;-82
2022/09/06 06:30:47;;;;;;;26.90;5.62;;;;;;;13.93;73.03;99680.00;2220467;80;20951;-82
2022/09/06 06:33:47;;;;;;;12.13;3.62;;;;;;;14.23;71.07;99674.20;2222259;80;20895;-83
2022/09/06 06:36:48;;;;;;;5.45;3.17;;;;;;;14.50;68.80;99676.25;2221698;80;20955;-82
2022/09/06 06:39:48;;;;;;;5.72;3.47;;;;;;;14.80;66.98;99677.41;2222785;80;21018;-84
2022/09/06 06:42:48;;;;;;;6.33;3.17;;;;;;;15.15;66.99;99683.80;2222843;80;21362;-82
2022/09/06 06:45:49;;;;;;;9.20;3.33;;;;;;;15.46;65.00;99680.05;2222579;80;20936;-84
2022/09/06 06:48:50;;;;;;;6.72;3.17;;;;;;;15.76;63.93;99677.62;2222124;80;20964;-82
2022/09/06 06:51:50;;;;;;;70.37;5.92;;;;;;;15.96;62.66;99670.23;2221253;80;20900;-82
2022/09/06 06:54:50;;;;;;;10.25;3.50;;;;;;;16.20;59.85;99678.20;2221692;80;20903;-82
2022/09/06 06:57:51;;;;;;;4.28;2.83;;;;;;;16.45;60.55;99677.81;2221613;80;20881;-82
2022/09/06 07:00:51;;;;;;;4.42;2.72;;;;;;;16.70;59.46;99682.30;2220968;80;21030;-82
2022/09/06 07:03:52;;;;;;;3.62;2.40;;;;;;;16.98;59.11;99684.49;2221217;80;20903;-82
2022/09/06 07:06:52;;;;;;;3.92;2.58;;;;;;;17.07;55.68;99688.44;2220979;80;20991;-81
2022/09/06 07:09:52;;;;;;;7.40;2.47;;;;;;;17.17;55.93;99693.27;2221137;80;20972;-82
2022/09/06 07:12:53;;;;;;;70.17;7.55;;;;;;;17.34;55.66;99683.59;2220637;80;20908;-81
2022/09/06 07:15:53;;;;;;;7.87;2.70;;;;;;;17.56;55.72;99684.86;2220041;80;20992;-81
2022/09/06 07:18:54;;;;;;;4.67;2.85;;;;;;;17.82;54.73;99684.36;2220196;80;20947;-81
2022/09/06 07:21:56;;;;;;;5.95;2.27;;;;;;;18.00;53.97;99684.28;2220758;80;20959;-82
2022/09/06 07:24:54;;;;;;;5.47;2.55;;;;;;;18.08;52.72;99679.83;2220910;80;21385;-81
2022/09/06 07:27:55;;;;;;;3.27;2.30;;;;;;;18.21;52.07;99693.89;2221915;80;20943;-83
2022/09/06 07:30:55;;;;;;;9.55;2.58;;;;;;;18.32;52.96;99692.06;2221483;80;20958;-82
2022/09/06 07:33:55;;;;;;;9.68;2.60;;;;;;;18.49;51.12;99691.08;2221976;80;20916;-79
2022/09/06 07:36:56;;;;;;;5.92;2.37;;;;;;;18.41;51.04;99689.80;2222332;80;20975;-84
2022/09/06 07:39:56;;;;;;;2.75;1.98;;;;;;;18.51;51.65;99689.30;2222163;80;20959;-80
2022/09/06 07:42:57;;;;;;;5.85;2.08;;;;;;;18.67;49.27;99689.21;2222385;80;20968;-82
2022/09/06 07:45:57;;;;;;;3.47;2.22;;;;;;;18.73;48.00;99693.58;2222098;80;20928;-84
2022/09/06 07:49:01;;;;;;;7.47;2.00;;;;;;;18.67;46.65;99696.27;2222867;80;20939;-83
2022/09/06 07:52:01;;;;;;;3.27;1.92;;;;;;;18.73;48.24;99691.81;2221643;80;20927;-83
2022/09/06 07:55:02;;;;;;;3.22;2.33;;;;;;;18.90;47.87;99694.31;2222088;80;20951;-83
2022/09/06 07:58:02;;;;;;;8.98;2.10;;;;;;;19.05;47.76;99688.89;2221038;80;20951;-85
2022/09/06 08:01:02;;;;;;;8.05;2.17;;;;;;;19.08;46.77;99695.52;2221707;80;21292;-83
2022/09/06 08:04:03;;;;;;;4.78;2.02;;;;;;;19.14;46.77;99695.03;2222190;80;20955;-84
2022/09/06 08:07:03;;;;;;;4.72;2.20;;;;;;;19.30;46.54;99689.57;2221123;80;20944;-82
2022/09/06 08:10:04;;;;;;;1.67;1.55;;;;;;;19.54;46.44;99688.47;2220879;80;21312;-83
2022/09/06 08:13:04;;;;;;;2.77;1.90;;;;;;;19.75;45.67;99691.77;2221021;80;20978;-84
2022/09/06 08:16:04;;;;;;;10.35;2.05;;;;;;;19.90;46.05;99685.83;2220846;80;20943;-84
2022/09/06 08:19:07;;;;;;;10.32;2.62;;;;;;;20.04;44.60;99690.98;2221322;80;21266;-83
2022/09/06 08:22:05;;;;;;;6.83;1.77;;;;;;;20.13;43.41;99682.92;2222050;80;20879;-84
2022/09/06 08:25:06;;;;;;;6.33;2.17;;;;;;;20.17;43.50;99683.30;2223525;80;20965;-84
2022/09/06 08:28:06;;;;;;;11.10;2.00;;;;;;;20.23;42.30;99680.56;2226102;80;20933;-84
2022/09/06 08:31:06;;;;;;;5.95;1.87;;;;;;;20.23;42.83;99671.73;2226634;80;20983;-83
2022/09/06 08:34:11;;;;;;;3.27;1.90;;;;;;;20.25;42.35;99670.81;2199075;80;20931;-85
2022/09/06 08:37:09;;;;;;;4.33;1.92;;;;;;;20.31;41.77;99664.10;2226021;80;21430;-83
2022/09/06 08:40:09;;;;;;;3.90;1.57;;;;;;;20.25;41.62;99664.64;2225004;80;20943;-84
2022/09/06 08:43:10;;;;;;;2.27;1.70;;;;;;;20.34;41.24;99662.73;2224850;80;20939;-83
2022/09/06 08:46:11;;;;;;;5.37;1.90;;;;;;;20.40;40.89;99663.13;2224896;80;20880;-84
2022/09/06 08:49:11;;;;;;;4.17;1.77;;;;;;;20.45;40.38;99663.05;2224800;80;20950;-84
2022/09/06 08:52:11;;;;;;;4.87;1.80;;;;;;;20.51;40.75;99666.48;2225107;80;20943;-84
2022/09/06 08:55:12;;;;;;;5.58;2.00;;;;;;;20.71;40.99;99662.20;2224588;80;20924;-85
2022/09/06 08:58:12;;;;;;;6.97;1.70;;;;;;;20.83;39.66;99662.03;2225644;80;20876;-86
2022/09/06 09:01:13;;;;;;;4.67;1.75;;;;;;;20.81;39.48;99655.88;2225785;80;20999;-85
2022/09/06 09:04:13;;;;;;;1.57;1.37;;;;;;;20.77;38.76;99657.23;2225971;80;21389;-84
2022/09/06 09:07:14;;;;;;;4.85;1.82;;;;;;;20.78;38.34;99647.92;2226378;80;21021;-84
2022/09/06 09:10:14;;;;;;;3.52;1.50;;;;;;;20.89;38.82;99655.29;2225819;80;20936;-84
2022/09/06 09:13:14;;;;;;;4.47;1.70;;;;;;;20.94;39.32;99646.80;2226455;80;20939;-84
2022/09/06 09:16:15;;;;;;;2.80;1.40;;;;;;;21.11;39.13;99649.15;2225926;80;20904;-85
2022/09/06 09:19:15;;;;;;;5.95;1.60;;;;;;;21.21;38.40;99651.19;2225237;80;21081;-84
2022/09/06 09:22:16;;;;;;;1.95;1.37;;;;;;;21.06;36.66;99649.69;2225237;80;20876;-84
2022/09/06 09:25:16;;;;;;;1.62;1.40;;;;;;;20.99;37.99;99640.08;2224587;80;20908;-84
2022/09/06 09:28:16;;;;;;;4.53;2.02;;;;;;;21.05;37.74;99646.61;2224341;80;20959;-84
2022/09/06 09:31:17;;;;;;;6.53;1.60;;;;;;;21.03;38.38;99639.58;2224389;80;20912;-83
2022/09/06 09:34:17;;;;;;;7.75;1.85;;;;;;;21.09;37.62;99640.34;2223494;80;21587;-84
2022/09/06 09:37:18;;;;;;;7.28;1.90;;;;;;;21.14;38.26;99633.17;2224103;80;20993;-83
2022/09/06 09:40:18;;;;;;;2.60;1.70;;;;;;;21.13;37.32;99632.74;2224726;80;20983;-83
2022/09/06 09:43:18;;;;;;;3.02;1.25;;;;;;;21.12;37.34;99624.36;2224383;80;20974;-85
2022/09/06 09:46:19;;;;;;;1.52;1.30;;;;;;;21.37;38.42;99623.92;2225306;80;20912;-84
2022/09/06 09:49:19;;;;;;;2.77;1.30;;;;;;;21.56;37.55;99622.20;2225048;80;21530;-83
2022/09/06 09:52:20;;;;;;;3.37;1.10;;;;;;;21.65;37.20;99608.30;2223802;80;20952;-81
2022/09/06 09:55:20;;;;;;;11.20;1.80;;;;;;;21.79;35.72;99609.80;2224606;80;20963;-86
2022/09/06 09:58:20;;;;;;;22.73;2.58;;;;;;;21.81;35.49;99603.99;2225513;80;20932;-84
2022/09/06 10:01:21;;;;;;;3.10;1.52;;;;;;;21.65;35.50;99602.98;2224987;80;21365;-83
2022/09/06 10:04:21;;;;;;;1.55;1.42;;;;;;;21.59;36.00;99602.21;2225299;80;21046;-84
2022/09/06 10:07:22;;;;;;;7.35;1.67;;;;;;;21.63;35.44;99593.27;2226059;80;20959;-84
2022/09/06 10:10:22;;;;;;;4.40;1.50;;;;;;;21.63;35.88;99589.73;2225204;80;21599;-85
2022/09/06 10:13:22;;;;;;;1.57;1.27;;;;;;;21.66;35.16;99575.52;2224598;80;20932;-83
2022/09/06 10:16:23;;;;;;;2.62;1.50;;;;;;;21.79;36.50;99569.93;2224644;80;20944;-83
2022/09/06 10:19:23;;;;;;;9.25;2.45;;;;;;;21.98;36.12;99578.37;2224989;80;21386;-86
2022/09/06 10:22:24;;;;;;;2.80;1.40;;;;;;;22.02;34.95;99568.54;2225489;80;20872;-85
2022/09/06 10:25:24;;;;;;;6.35;1.72;;;;;;;21.98;34.68;99570.84;2224944;80;20996;-83
2022/09/06 10:28:25;;;;;;;11.28;1.62;;;;;;;22.31;36.01;99563.89;2221805;80;21307;-84
2022/09/06 10:31:25;;;;;;;24.90;3.67;;;;;;;22.34;33.76;99554.05;2222286;80;20884;-84
2022/09/06 10:34:25;;;;;;;152.07;9.00;;;;;;;22.57;36.11;99553.51;2221862;80;20935;-84
2022/09/06 10:37:26;;;;;;;5.45;1.67;;;;;;;22.60;36.64;99546.78;2223100;80;21006;-85
2022/09/06 10:40:27;;;;;;;3.85;1.67;;;;;;;22.59;34.16;99553.02;2222906;80;20959;-83
2022/09/06 10:43:27;;;;;;;2.40;1.40;;;;;;;22.63;33.97;99557.34;2221947;80;20987;-84
2022/09/06 10:46:27;;;;;;;2.95;1.52;;;;;;;22.58;33.91;99555.25;2221332;80;20899;-84
2022/09/06 10:49:28;;;;;;;4.70;1.30;;;;;;;22.48;34.10;99556.37;2221988;80;20948;-85
2022/09/06 10:52:28;;;;;;;280.27;23.25;;;;;;;22.43;33.69;99563.13;2221261;80;20915;-81
2022/09/06 10:55:31;;;;;;;4.12;1.62;;;;;;;22.25;34.56;99557.81;2192831;80;20937;-84
2022/09/06 10:58:31;;;;;;;3.65;1.40;;;;;;;22.17;34.06;99547.81;2222237;80;20952;-83
2022/09/06 11:01:31;;;;;;;3.75;1.20;;;;;;;22.06;34.10;99552.52;2221659;80;20916;-83
2022/09/06 11:04:32;;;;;;;20.55;3.00;;;;;;;22.06;34.46;99550.31;2221654;80;20908;-83
2022/09/06 11:07:35;;;;;;;1.62;1.52;;;;;;;22.06;34.49;99551.19;2222127;80;20927;-82
2022/09/06 11:10:33;;;;;;;2.70;1.60;;;;;;;21.95;33.82;99554.52;2221464;80;20999;-84
2022/09/06 11:13:33;;;;;;;1.72;1.40;;;;;;;21.90;34.31;99549.30;2222255;80;20904;-84
2022/09/06 11:16:38;;;;;;;1.87;1.30;;;;;;;22.00;33.43;99543.77;2222770;80;21352;-83
2022/09/06 11:19:36;;;;;;;5.08;1.70;;;;;;;22.01;33.91;99545.06;2192979;80;20986;-83
2022/09/06 11:22:36;;;;;;;19.57;2.22;;;;;;;22.12;32.74;99543.52;2221785;80;20920;-85
2022/09/06 11:25:36;;;;;;;6.50;1.62;;;;;;;22.11;33.77;99536.00;2220615;80;21024;-80
2022/09/06 11:28:37;;;;;;;1.87;1.45;;;;;;;22.21;32.77;99532.20;2221829;80;20919;-83
2022/09/06 11:31:37;;;;;;;3.20;1.22;;;;;;;22.18;33.44;99530.95;2222091;80;20944;-84
2022/09/06 11:34:39;;;;;;;3.20;1.52;;;;;;;22.34;33.57;99533.23;2222063;80;20919;-82
2022/09/06 11:37:38;;;;;;;2.12;1.50;;;;;;;22.45;33.30;99530.72;2221717;80;20924;-82
2022/09/06 11:40:40;;;;;;;2.87;1.47;;;;;;;22.42;32.94;99523.27;2221770;80;20915;-85
2022/09/06 11:43:39;;;;;;;6.65;1.92;;;;;;;22.25;32.30;99517.05;2221940;80;20868;-83
2022/09/06 11:46:39;;;;;;;5.03;1.40;;;;;;;22.07;32.75;99519.70;2221403;80;20916;-82
2022/09/06 11:49:40;;;;;;;3.77;1.70;;;;;;;22.06;32.93;99513.09;2220875;80;20912;-82
2022/09/06 11:52:40;;;;;;;2.30;1.40;;;;;;;22.12;32.54;99510.28;2221485;80;21311;-82
2022/09/06 11:55:41;;;;;;;5.20;1.40;;;;;;;22.16;33.36;99507.52;2220345;80;20927;-82
2022/09/06 11:58:41;;;;;;;15.55;2.37;;;;;;;22.41;33.20;99506.89;2220759;80;20916;-82
2022/09/06 12:01:42;;;;;;;7.50;1.40;;;;;;;22.36;32.83;99512.33;2220709;80;20958;-81
2022/09/06 12:04:42;;;;;;;2.45;1.20;;;;;;;22.43;32.86;99509.94;2221604;80;20908;-83
2022/09/06 12:07:42;;;;;;;2.27;1.67;;;;;;;22.53;32.72;99502.59;2220292;80;20998;-79
2022/09/06 12:10:43;;;;;;;6.83;1.70;;;;;;;22.66;31.91;99499.18;2219670;80;20892;-81
2022/09/06 12:13:43;;;;;;;4.62;1.35;;;;;;;22.55;32.98;99506.11;2219512;80;21332;-81
2022/09/06 12:16:44;;;;;;;2.37;1.70;;;;;;;22.62;33.07;99501.50;2220254;80;20916;-82
2022/09/06 12:19:44;;;;;;;5.30;1.57;;;;;;;22.73;32.11;99494.98;2219534;80;20962;-82
2022/09/06 12:22:45;;;;;;;2.25;1.65;;;;;;;22.73;32.47;99488.33;2219319;80;20944;-81
2022/09/06 12:25:45;;;;;;;5.33;1.52;;;;;;;22.78;31.96;99493.06;2219020;80;20915;-82
2022/09/06 12:28:46;;;;;;;4.30;1.35;;;;;;;22.76;32.40;99489.57;2221933;80;20919;-82
2022/09/06 12:31:46;;;;;;;3.85;1.90;;;;;;;22.74;31.40;99495.39;2222286;80;20900;-82
2022/09/06 12:34:46;;;;;;;2.50;1.60;;;;;;;22.66;32.19;99505.37;2222297;80;20884;-81
2022/09/06 12:37:47;;;;;;;3.60;1.47;;;;;;;22.56;31.41;99498.55;2222203;80;21006;-81
2022/09/06 12:40:47;;;;;;;8.40;1.72;;;;;;;22.48;31.88;99492.52;2223181;80;20974;-81
2022/09/06 12:43:47;;;;;;;5.10;1.60;;;;;;;22.51;32.36;99484.00;2223896;80;20904;-81
2022/09/06 12:46:50;;;;;;;3.75;1.62;;;;;;;22.55;32.36;99486.16;2196937;80;20967;-80
2022/09/06 12:49:50;;;;;;;3.15;1.77;;;;;;;22.59;32.65;99473.65;2222778;80;21010;-80
2022/09/06 12:52:51;;;;;;;2.00;1.55;;;;;;;22.70;32.71;99475.56;2223871;80;21354;-82
2022/09/06 12:55:51;;;;;;;1.90;1.70;;;;;;;22.79;31.96;99478.84;2223866;80;21571;-81
2022/09/06 12:58:51;;;;;;;7.92;1.65;;;;;;;22.65;32.42;99470.82;2224574;80;20951;-82
2022/09/06 13:01:52;;;;;;;3.83;1.75;;;;;;;22.60;32.93;99474.06;2225139;80;20928;-84
2022/09/06 13:04:52;;;;;;;3.10;1.57;;;;;;;22.65;33.18;99472.16;2225307;80;20950;-82
2022/09/06 13:07:53;;;;;;;3.35;1.47;;;;;;;22.67;32.65;99469.86;2224149;80;20935;-83
2022/09/06 13:10:54;;;;;;;7.80;2.08;;;;;;;22.71;32.81;99463.55;2224140;80;21328;-82
2022/09/06 13:13:53;;;;;;;2.17;1.52;;;;;;;22.78;31.69;99463.79;2224969;80;20935;-82
2022/09/06 13:16:57;;;;;;;4.25;1.30;;;;;;;22.82;31.37;99458.83;2225219;80;20887;-83
2022/09/06 13:19:58;;;;;;;3.65;1.50;;;;;;;22.71;31.52;99458.22;2224161;80;21403;-81
2022/09/06 13:23:00;;;;;;;2.37;1.40;;;;;;;22.67;31.61;99449.91;2223364;80;20943;-82
2022/09/06 13:26:00;;;;;;;2.77;1.50;;;;;;;22.61;32.30;99456.73;2213888;80;20990;-82
2022/09/06 13:29:00;;;;;;;9.60;2.25;;;;;;;22.58;31.99;99461.27;2223197;80;21376;-81
2022/09/06 13:32:01;;;;;;;4.40;1.37;;;;;;;22.54;32.49;99457.77;2223211;80;20967;-82
2022/09/06 13:35:01;;;;;;;3.08;1.52;;;;;;;22.60;32.67;99450.12;2223630;80;20967;-81
2022/09/06 13:38:01;;;;;;;5.53;1.95;;;;;;;22.74;32.58;99453.27;2224832;80;21405;-81
2022/09/06 13:41:02;;;;;;;8.25;1.80;;;;;;;22.81;32.43;99447.77;2225163;80;20951;-82
2022/09/06 13:44:03;;;;;;;6.40;1.70;;;;;;;22.82;32.88;99448.19;2225806;80;20911;-82
2022/09/06 13:47:03;;;;;;;4.55;1.52;;;;;;;22.88;32.78;99445.80;2226167;80;20912;-83
2022/09/06 13:50:04;;;;;;;3.83;1.60;;;;;;;22.85;32.00;99435.25;2226282;80;20967;-81
2022/09/06 13:53:04;;;;;;;5.37;1.55;;;;;;;22.85;32.01;99430.80;2225814;80;20951;-81
2022/09/06 13:56:07;;;;;;;5.33;1.92;;;;;;;22.82;31.99;99422.90;2226074;80;20989;-83
2022/09/06 13:59:04;;;;;;;4.35;1.42;;;;;;;22.62;32.70;99421.68;2225627;80;20931;-82
2022/09/06 14:02:06;;;;;;;2.67;1.70;;;;;;;22.59;33.12;99417.31;2225478;80;20943;-83
2022/09/06 14:05:05;;;;;;;6.85;1.67;;;;;;;22.55;33.36;99415.20;2226795;80;20975;-81
2022/09/06 14:08:06;;;;;;;1.82;1.65;;;;;;;22.37;32.59;99417.45;2225852;80;20982;-82
2022/09/06 14:11:06;;;;;;;6.47;1.80;;;;;;;22.31;32.96;99412.30;2226803;80;20955;-83